sensor_id;sensor_type;location;lat;lon;timestamp;P1;durP1;ratioP1;P2;durP2;ratioP2
23115;SDS011;11727;52.134;5.052;2022-07-23T00:01:22;3.05;;;0.70;;
23115;SDS011;11727;52.134;5.052;2022-07-23T00:03:48;1.10;;;0.50;;
23115;SDS011;11727;52.134;5.052;2022-07-23T00:06:14;1.20;;;0.47;;
23115;SDS011;11727;52.134;5.052;2022-07-23T00:08:40;3.03;;;0.50;;
23115;SDS011;11727;52.134;5.052;2022-07-23T00:11:06;1.00;;;0.50;;
23115;SDS011;11727;52.134;5.052;2022-07-23T00:13:31;0.90;;;0.50;;
23115;SDS011;11727;52.134;5.052;2022-07-23T00:15:57;2.38;;;0.52;;
23115;SDS011;11727;52.134;5.052;2022-07-23T00:18:22;0.57;;;0.40;;
23115;SDS011;11727;52.134;5.052;2022-07-23T00:20:48;1.20;;;0.52;;
23115;SDS011;11727;52.134;5.052;2022-07-23T00:23:14;1.77;;;0.75;;
23115;SDS011;11727;52.134;5.052;2022-07-23T00:25:39;1.00;;;0.50;;
23115;SDS011;11727;52.134;5.052;2022-07-23T00:28:05;1.15;;;0.52;;
23115;SDS011;11727;52.134;5.052;2022-07-23T00:30:31;1.30;;;0.73;;
23115;SDS011;11727;52.134;5.052;2022-07-23T00:32:59;0.85;;;0.50;;
23115;SDS011;11727;52.134;5.052;2022-07-23T00:35:27;6.03;;;0.50;;
23115;SDS011;11727;52.134;5.052;2022-07-23T00:37:55;4.45;;;0.60;;
23115;SDS011;11727;52.134;5.052;2022-07-23T00:40:21;1.75;;;0.60;;
23115;SDS011;11727;52.134;5.052;2022-07-23T00:42:47;1.90;;;0.50;;
23115;SDS011;11727;52.134;5.052;2022-07-23T00:45:13;1.13;;;0.50;;
23115;SDS011;11727;52.134;5.052;2022-07-23T00:47:38;1.23;;;0.60;;
23115;SDS011;11727;52.134;5.052;2022-07-23T00:50:04;2.65;;;0.70;;
23115;SDS011;11727;52.134;5.052;2022-07-23T00:52:32;5.32;;;0.70;;
23115;SDS011;11727;52.134;5.052;2022-07-23T00:54:59;1.27;;;0.60;;
23115;SDS011;11727;52.134;5.052;2022-07-23T00:57:25;2.90;;;0.77;;
23115;SDS011;11727;52.134;5.052;2022-07-23T00:59:51;1.00;;;0.50;;
23115;SDS011;11727;52.134;5.052;2022-07-23T01:02:16;1.50;;;0.65;;
23115;SDS011;11727;52.134;5.052;2022-07-23T01:04:42;1.33;;;0.57;;
23115;SDS011;11727;52.134;5.052;2022-07-23T01:07:08;0.73;;;0.50;;
23115;SDS011;11727;52.134;5.052;2022-07-23T01:09:33;2.20;;;0.73;;
23115;SDS011;11727;52.134;5.052;2022-07-23T01:11:59;1.00;;;0.50;;
23115;SDS011;11727;52.134;5.052;2022-07-23T01:14:25;1.23;;;0.52;;
23115;SDS011;11727;52.134;5.052;2022-07-23T01:16:51;5.35;;;1.00;;
23115;SDS011;11727;52.134;5.052;2022-07-23T01:19:17;0.77;;;0.40;;
23115;SDS011;11727;52.134;5.052;2022-07-23T01:21:47;0.60;;;0.40;;
23115;SDS011;11727;52.134;5.052;2022-07-23T01:24:14;1.42;;;0.80;;
23115;SDS011;11727;52.134;5.052;2022-07-23T01:26:43;1.47;;;0.67;;
23115;SDS011;11727;52.134;5.052;2022-07-23T01:29:10;1.15;;;0.70;;
23115;SDS011;11727;52.134;5.052;2022-07-23T01:31:36;2.10;;;0.60;;
23115;SDS011;11727;52.134;5.052;2022-07-23T01:34:02;0.85;;;0.60;;
23115;SDS011;11727;52.134;5.052;2022-07-23T01:36:27;1.83;;;1.00;;
23115;SDS011;11727;52.134;5.052;2022-07-23T01:38:53;1.30;;;0.60;;
23115;SDS011;11727;52.134;5.052;2022-07-23T01:41:19;1.35;;;0.93;;
23115;SDS011;11727;52.134;5.052;2022-07-23T01:43:45;1.05;;;0.65;;
23115;SDS011;11727;52.134;5.052;2022-07-23T01:46:11;1.05;;;0.60;;
23115;SDS011;11727;52.134;5.052;2022-07-23T01:48:37;0.50;;;0.30;;
23115;SDS011;11727;52.134;5.052;2022-07-23T01:51:03;2.30;;;0.77;;
23115;SDS011;11727;52.134;5.052;2022-07-23T01:53:29;1.25;;;0.70;;
23115;SDS011;11727;52.134;5.052;2022-07-23T01:55:56;0.70;;;0.50;;
23115;SDS011;11727;52.134;5.052;2022-07-23T01:58:25;1.10;;;0.50;;
23115;SDS011;11727;52.134;5.052;2022-07-23T02:00:51;1.02;;;0.57;;
23115;SDS011;11727;52.134;5.052;2022-07-23T02:03:18;1.30;;;0.80;;
23115;SDS011;11727;52.134;5.052;2022-07-23T02:05:44;1.25;;;0.65;;
23115;SDS011;11727;52.134;5.052;2022-07-23T02:08:09;1.00;;;0.60;;
23115;SDS011;11727;52.134;5.052;2022-07-23T02:10:35;2.40;;;0.73;;
23115;SDS011;11727;52.134;5.052;2022-07-23T02:13:00;1.73;;;0.60;;
23115;SDS011;11727;52.134;5.052;2022-07-23T02:15:26;0.65;;;0.50;;
23115;SDS011;11727;52.134;5.052;2022-07-23T02:17:53;0.93;;;0.63;;
23115;SDS011;11727;52.134;5.052;2022-07-23T02:20:19;1.27;;;0.77;;
23115;SDS011;11727;52.134;5.052;2022-07-23T02:22:45;0.80;;;0.60;;
23115;SDS011;11727;52.134;5.052;2022-07-23T02:25:10;0.73;;;0.50;;
23115;SDS011;11727;52.134;5.052;2022-07-23T02:27:36;4.68;;;1.20;;
23115;SDS011;11727;52.134;5.052;2022-07-23T02:30:03;0.90;;;0.60;;
23115;SDS011;11727;52.134;5.052;2022-07-23T02:32:29;1.13;;;0.65;;
23115;SDS011;11727;52.134;5.052;2022-07-23T02:34:54;1.92;;;0.60;;
23115;SDS011;11727;52.134;5.052;2022-07-23T02:37:20;4.68;;;0.95;;
23115;SDS011;11727;52.134;5.052;2022-07-23T02:39:46;1.50;;;0.75;;
23115;SDS011;11727;52.134;5.052;2022-07-23T02:42:13;1.23;;;0.65;;
23115;SDS011;11727;52.134;5.052;2022-07-23T02:44:39;1.95;;;0.55;;
23115;SDS011;11727;52.134;5.052;2022-07-23T02:47:04;5.82;;;0.70;;
23115;SDS011;11727;52.134;5.052;2022-07-23T02:49:30;2.38;;;0.40;;
23115;SDS011;11727;52.134;5.052;2022-07-23T02:51:56;1.00;;;0.60;;
23115;SDS011;11727;52.134;5.052;2022-07-23T02:54:21;2.55;;;0.68;;
23115;SDS011;11727;52.134;5.052;2022-07-23T02:56:47;2.55;;;0.70;;
23115;SDS011;11727;52.134;5.052;2022-07-23T02:59:12;2.45;;;1.08;;
23115;SDS011;11727;52.134;5.052;2022-07-23T03:01:38;1.02;;;0.63;;
23115;SDS011;11727;52.134;5.052;2022-07-23T03:04:04;3.13;;;0.60;;
23115;SDS011;11727;52.134;5.052;2022-07-23T03:06:29;1.92;;;0.80;;
23115;SDS011;11727;52.134;5.052;2022-07-23T03:08:55;1.73;;;0.82;;
23115;SDS011;11727;52.134;5.052;2022-07-23T03:11:21;1.48;;;0.70;;
23115;SDS011;11727;52.134;5.052;2022-07-23T03:13:46;1.80;;;0.77;;
23115;SDS011;11727;52.134;5.052;2022-07-23T03:16:12;0.60;;;0.52;;
23115;SDS011;11727;52.134;5.052;2022-07-23T03:18:37;0.80;;;0.50;;
23115;SDS011;11727;52.134;5.052;2022-07-23T03:21:03;1.02;;;0.60;;
23115;SDS011;11727;52.134;5.052;2022-07-23T03:23:29;2.75;;;0.60;;
23115;SDS011;11727;52.134;5.052;2022-07-23T03:25:54;1.92;;;0.73;;
23115;SDS011;11727;52.134;5.052;2022-07-23T03:28:20;2.15;;;0.80;;
23115;SDS011;11727;52.134;5.052;2022-07-23T03:30:46;1.60;;;0.60;;
23115;SDS011;11727;52.134;5.052;2022-07-23T03:33:16;0.90;;;0.50;;
23115;SDS011;11727;52.134;5.052;2022-07-23T03:35:46;2.10;;;0.80;;
23115;SDS011;11727;52.134;5.052;2022-07-23T03:38:12;2.83;;;0.80;;
23115;SDS011;11727;52.134;5.052;2022-07-23T03:40:38;1.33;;;0.60;;
23115;SDS011;11727;52.134;5.052;2022-07-23T03:43:04;2.88;;;0.60;;
23115;SDS011;11727;52.134;5.052;2022-07-23T03:45:30;2.35;;;0.70;;
23115;SDS011;11727;52.134;5.052;2022-07-23T03:47:56;1.23;;;0.60;;
23115;SDS011;11727;52.134;5.052;2022-07-23T03:50:21;2.95;;;0.90;;
23115;SDS011;11727;52.134;5.052;2022-07-23T03:52:47;3.03;;;0.65;;
23115;SDS011;11727;52.134;5.052;2022-07-23T03:55:13;2.33;;;0.90;;
23115;SDS011;11727;52.134;5.052;2022-07-23T03:57:39;0.85;;;0.68;;
23115;SDS011;11727;52.134;5.052;2022-07-23T04:00:05;2.10;;;1.10;;
23115;SDS011;11727;52.134;5.052;2022-07-23T04:02:34;1.92;;;0.80;;
23115;SDS011;11727;52.134;5.052;2022-07-23T04:05:00;2.88;;;0.70;;
23115;SDS011;11727;52.134;5.052;2022-07-23T04:07:26;1.40;;;0.63;;
23115;SDS011;11727;52.134;5.052;2022-07-23T04:09:51;2.63;;;0.70;;
23115;SDS011;11727;52.134;5.052;2022-07-23T04:12:17;2.45;;;1.23;;
23115;SDS011;11727;52.134;5.052;2022-07-23T04:14:43;2.65;;;0.47;;
23115;SDS011;11727;52.134;5.052;2022-07-23T04:17:09;1.35;;;0.50;;
23115;SDS011;11727;52.134;5.052;2022-07-23T04:19:35;0.70;;;0.50;;
23115;SDS011;11727;52.134;5.052;2022-07-23T04:22:05;0.77;;;0.40;;
23115;SDS011;11727;52.134;5.052;2022-07-23T04:24:31;0.70;;;0.50;;
23115;SDS011;11727;52.134;5.052;2022-07-23T04:26:56;0.82;;;0.50;;
23115;SDS011;11727;52.134;5.052;2022-07-23T04:29:22;1.23;;;0.50;;
23115;SDS011;11727;52.134;5.052;2022-07-23T04:31:48;0.80;;;0.50;;
23115;SDS011;11727;52.134;5.052;2022-07-23T04:34:14;1.05;;;0.65;;
23115;SDS011;11727;52.134;5.052;2022-07-23T04:36:39;1.95;;;0.60;;
23115;SDS011;11727;52.134;5.052;2022-07-23T04:39:05;2.00;;;0.70;;
23115;SDS011;11727;52.134;5.052;2022-07-23T04:41:31;2.42;;;0.80;;
23115;SDS011;11727;52.134;5.052;2022-07-23T04:43:57;1.17;;;0.57;;
23115;SDS011;11727;52.134;5.052;2022-07-23T04:46:22;1.25;;;0.70;;
23115;SDS011;11727;52.134;5.052;2022-07-23T04:48:48;0.95;;;0.50;;
23115;SDS011;11727;52.134;5.052;2022-07-23T04:51:14;3.35;;;0.50;;
23115;SDS011;11727;52.134;5.052;2022-07-23T04:53:39;1.00;;;0.57;;
23115;SDS011;11727;52.134;5.052;2022-07-23T04:56:05;4.45;;;0.70;;
23115;SDS011;11727;52.134;5.052;2022-07-23T04:58:31;3.63;;;0.60;;
23115;SDS011;11727;52.134;5.052;2022-07-23T05:00:57;1.10;;;0.47;;
23115;SDS011;11727;52.134;5.052;2022-07-23T05:03:22;2.85;;;0.52;;
23115;SDS011;11727;52.134;5.052;2022-07-23T05:05:48;0.80;;;0.50;;
23115;SDS011;11727;52.134;5.052;2022-07-23T05:08:14;2.67;;;1.00;;
23115;SDS011;11727;52.134;5.052;2022-07-23T05:10:40;1.05;;;0.60;;
23115;SDS011;11727;52.134;5.052;2022-07-23T05:13:05;2.92;;;0.55;;
23115;SDS011;11727;52.134;5.052;2022-07-23T05:15:31;1.33;;;0.50;;
23115;SDS011;11727;52.134;5.052;2022-07-23T05:17:56;0.50;;;0.40;;
23115;SDS011;11727;52.134;5.052;2022-07-23T05:20:22;1.55;;;0.63;;
23115;SDS011;11727;52.134;5.052;2022-07-23T05:22:48;1.65;;;0.63;;
23115;SDS011;11727;52.134;5.052;2022-07-23T05:25:13;1.77;;;0.65;;
23115;SDS011;11727;52.134;5.052;2022-07-23T05:27:39;0.93;;;0.50;;
23115;SDS011;11727;52.134;5.052;2022-07-23T05:30:05;1.10;;;0.50;;
23115;SDS011;11727;52.134;5.052;2022-07-23T05:32:31;0.95;;;0.45;;
23115;SDS011;11727;52.134;5.052;2022-07-23T05:34:57;1.17;;;0.60;;
23115;SDS011;11727;52.134;5.052;2022-07-23T05:37:23;0.63;;;0.50;;
23115;SDS011;11727;52.134;5.052;2022-07-23T05:39:49;3.03;;;0.75;;
23115;SDS011;11727;52.134;5.052;2022-07-23T05:42:14;0.60;;;0.40;;
23115;SDS011;11727;52.134;5.052;2022-07-23T05:44:40;1.50;;;0.90;;
23115;SDS011;11727;52.134;5.052;2022-07-23T05:47:06;0.98;;;0.57;;
23115;SDS011;11727;52.134;5.052;2022-07-23T05:49:31;1.80;;;0.68;;
23115;SDS011;11727;52.134;5.052;2022-07-23T05:51:57;1.00;;;0.57;;
23115;SDS011;11727;52.134;5.052;2022-07-23T05:54:22;4.45;;;0.47;;
23115;SDS011;11727;52.134;5.052;2022-07-23T05:56:48;1.15;;;0.70;;
23115;SDS011;11727;52.134;5.052;2022-07-23T05:59:15;3.53;;;0.70;;
23115;SDS011;11727;52.134;5.052;2022-07-23T06:01:40;0.93;;;0.40;;
23115;SDS011;11727;52.134;5.052;2022-07-23T06:04:06;0.40;;;0.30;;
23115;SDS011;11727;52.134;5.052;2022-07-23T06:06:32;2.05;;;0.60;;
23115;SDS011;11727;52.134;5.052;2022-07-23T06:08:58;2.50;;;0.70;;
23115;SDS011;11727;52.134;5.052;2022-07-23T06:11:23;1.63;;;1.13;;
23115;SDS011;11727;52.134;5.052;2022-07-23T06:13:49;2.15;;;0.93;;
23115;SDS011;11727;52.134;5.052;2022-07-23T06:16:15;1.95;;;0.65;;
23115;SDS011;11727;52.134;5.052;2022-07-23T06:18:40;3.92;;;1.10;;
23115;SDS011;11727;52.134;5.052;2022-07-23T06:21:06;1.20;;;0.50;;
23115;SDS011;11727;52.134;5.052;2022-07-23T06:23:31;5.03;;;0.57;;
23115;SDS011;11727;52.134;5.052;2022-07-23T06:25:57;1.88;;;1.33;;
23115;SDS011;11727;52.134;5.052;2022-07-23T06:28:22;1.90;;;0.60;;
23115;SDS011;11727;52.134;5.052;2022-07-23T06:30:48;0.90;;;0.60;;
23115;SDS011;11727;52.134;5.052;2022-07-23T06:33:14;2.97;;;0.60;;
23115;SDS011;11727;52.134;5.052;2022-07-23T06:35:39;1.92;;;0.57;;
23115;SDS011;11727;52.134;5.052;2022-07-23T06:38:05;3.25;;;0.40;;
23115;SDS011;11727;52.134;5.052;2022-07-23T06:40:30;2.65;;;0.52;;
23115;SDS011;11727;52.134;5.052;2022-07-23T06:42:56;0.75;;;0.40;;
23115;SDS011;11727;52.134;5.052;2022-07-23T06:45:22;1.98;;;0.45;;
23115;SDS011;11727;52.134;5.052;2022-07-23T06:47:47;3.53;;;0.40;;
23115;SDS011;11727;52.134;5.052;2022-07-23T06:50:13;0.88;;;0.47;;
23115;SDS011;11727;52.134;5.052;2022-07-23T06:52:38;0.43;;;0.40;;
23115;SDS011;11727;52.134;5.052;2022-07-23T06:55:04;1.17;;;0.35;;
23115;SDS011;11727;52.134;5.052;2022-07-23T06:57:30;4.88;;;0.40;;
23115;SDS011;11727;52.134;5.052;2022-07-23T06:59:56;1.65;;;0.43;;
23115;SDS011;11727;52.134;5.052;2022-07-23T07:02:21;2.08;;;0.43;;
23115;SDS011;11727;52.134;5.052;2022-07-23T07:04:47;0.73;;;0.30;;
23115;SDS011;11727;52.134;5.052;2022-07-23T07:07:12;0.77;;;0.50;;
23115;SDS011;11727;52.134;5.052;2022-07-23T07:09:38;0.93;;;0.50;;
23115;SDS011;11727;52.134;5.052;2022-07-23T07:12:04;3.00;;;0.40;;
23115;SDS011;11727;52.134;5.052;2022-07-23T07:14:30;0.70;;;0.40;;
23115;SDS011;11727;52.134;5.052;2022-07-23T07:16:55;0.65;;;0.40;;
23115;SDS011;11727;52.134;5.052;2022-07-23T07:19:21;0.20;;;0.20;;
23115;SDS011;11727;52.134;5.052;2022-07-23T07:21:47;0.30;;;0.20;;
23115;SDS011;11727;52.134;5.052;2022-07-23T07:24:12;0.88;;;0.35;;
23115;SDS011;11727;52.134;5.052;2022-07-23T07:26:38;1.38;;;0.40;;
23115;SDS011;11727;52.134;5.052;2022-07-23T07:29:04;1.42;;;0.50;;
23115;SDS011;11727;52.134;5.052;2022-07-23T07:31:30;1.23;;;0.40;;
23115;SDS011;11727;52.134;5.052;2022-07-23T07:33:56;0.70;;;0.43;;
23115;SDS011;11727;52.134;5.052;2022-07-23T07:36:22;1.90;;;0.40;;
23115;SDS011;11727;52.134;5.052;2022-07-23T07:38:48;1.10;;;0.50;;
23115;SDS011;11727;52.134;5.052;2022-07-23T07:41:13;2.10;;;0.60;;
23115;SDS011;11727;52.134;5.052;2022-07-23T07:43:39;0.65;;;0.50;;
23115;SDS011;11727;52.134;5.052;2022-07-23T07:46:05;0.68;;;0.50;;
23115;SDS011;11727;52.134;5.052;2022-07-23T07:48:34;5.45;;;0.40;;
23115;SDS011;11727;52.134;5.052;2022-07-23T07:51:03;2.25;;;0.47;;
23115;SDS011;11727;52.134;5.052;2022-07-23T07:53:30;1.98;;;0.40;;
23115;SDS011;11727;52.134;5.052;2022-07-23T07:55:55;1.35;;;0.40;;
23115;SDS011;11727;52.134;5.052;2022-07-23T07:58:21;0.80;;;0.50;;
23115;SDS011;11727;52.134;5.052;2022-07-23T08:00:46;1.05;;;0.32;;
23115;SDS011;11727;52.134;5.052;2022-07-23T08:03:12;1.17;;;0.30;;
23115;SDS011;11727;52.134;5.052;2022-07-23T08:05:38;1.08;;;0.43;;
23115;SDS011;11727;52.134;5.052;2022-07-23T08:08:04;2.92;;;0.30;;
23115;SDS011;11727;52.134;5.052;2022-07-23T08:10:29;2.22;;;0.50;;
23115;SDS011;11727;52.134;5.052;2022-07-23T08:12:56;0.63;;;0.45;;
23115;SDS011;11727;52.134;5.052;2022-07-23T08:15:24;2.65;;;0.50;;
23115;SDS011;11727;52.134;5.052;2022-07-23T08:17:51;1.52;;;0.40;;
23115;SDS011;11727;52.134;5.052;2022-07-23T08:20:18;1.63;;;0.50;;
23115;SDS011;11727;52.134;5.052;2022-07-23T08:22:45;1.42;;;0.60;;
23115;SDS011;11727;52.134;5.052;2022-07-23T08:25:21;0.50;;;0.32;;
23115;SDS011;11727;52.134;5.052;2022-07-23T08:27:49;0.40;;;0.30;;
23115;SDS011;11727;52.134;5.052;2022-07-23T08:30:15;1.02;;;0.45;;
23115;SDS011;11727;52.134;5.052;2022-07-23T08:35:25;2.20;;;0.40;;
23115;SDS011;11727;52.134;5.052;2022-07-23T08:37:56;0.98;;;0.40;;
23115;SDS011;11727;52.134;5.052;2022-07-23T08:40:23;4.00;;;0.60;;
23115;SDS011;11727;52.134;5.052;2022-07-23T08:42:51;1.00;;;0.35;;
23115;SDS011;11727;52.134;5.052;2022-07-23T08:45:21;0.75;;;0.40;;
23115;SDS011;11727;52.134;5.052;2022-07-23T08:47:49;2.47;;;0.82;;
23115;SDS011;11727;52.134;5.052;2022-07-23T08:50:20;0.50;;;0.30;;
23115;SDS011;11727;52.134;5.052;2022-07-23T08:52:50;1.42;;;0.47;;
23115;SDS011;11727;52.134;5.052;2022-07-23T08:55:18;0.47;;;0.25;;
23115;SDS011;11727;52.134;5.052;2022-07-23T08:57:46;0.50;;;0.25;;
23115;SDS011;11727;52.134;5.052;2022-07-23T09:00:13;1.70;;;0.40;;
23115;SDS011;11727;52.134;5.052;2022-07-23T09:02:40;1.90;;;0.38;;
23115;SDS011;11727;52.134;5.052;2022-07-23T09:05:08;0.63;;;0.45;;
23115;SDS011;11727;52.134;5.052;2022-07-23T09:07:36;0.40;;;0.40;;
23115;SDS011;11727;52.134;5.052;2022-07-23T09:10:06;0.65;;;0.30;;
23115;SDS011;11727;52.134;5.052;2022-07-23T09:12:34;0.40;;;0.30;;
23115;SDS011;11727;52.134;5.052;2022-07-23T09:15:04;1.10;;;0.30;;
23115;SDS011;11727;52.134;5.052;2022-07-23T09:17:36;0.50;;;0.40;;
23115;SDS011;11727;52.134;5.052;2022-07-23T09:20:10;1.17;;;0.40;;
23115;SDS011;11727;52.134;5.052;2022-07-23T09:22:44;1.10;;;0.40;;
23115;SDS011;11727;52.134;5.052;2022-07-23T09:25:17;0.50;;;0.30;;
23115;SDS011;11727;52.134;5.052;2022-07-23T09:27:54;0.45;;;0.40;;
23115;SDS011;11727;52.134;5.052;2022-07-23T09:30:24;1.45;;;0.50;;
23115;SDS011;11727;52.134;5.052;2022-07-23T09:35:54;0.82;;;0.40;;
23115;SDS011;11727;52.134;5.052;2022-07-23T09:38:22;0.38;;;0.35;;
23115;SDS011;11727;52.134;5.052;2022-07-23T09:43:33;1.15;;;0.40;;
23115;SDS011;11727;52.134;5.052;2022-07-23T09:48:44;0.88;;;0.40;;
23115;SDS011;11727;52.134;5.052;2022-07-23T09:51:10;3.70;;;0.30;;
23115;SDS011;11727;52.134;5.052;2022-07-23T09:53:35;2.85;;;0.40;;
23115;SDS011;11727;52.134;5.052;2022-07-23T09:56:01;1.17;;;0.40;;
23115;SDS011;11727;52.134;5.052;2022-07-23T09:58:27;2.33;;;0.47;;
23115;SDS011;11727;52.134;5.052;2022-07-23T10:00:55;1.85;;;0.40;;
23115;SDS011;11727;52.134;5.052;2022-07-23T10:03:22;0.47;;;0.30;;
23115;SDS011;11727;52.134;5.052;2022-07-23T10:05:49;3.72;;;1.00;;
23115;SDS011;11727;52.134;5.052;2022-07-23T10:08:17;0.40;;;0.30;;
23115;SDS011;11727;52.134;5.052;2022-07-23T10:10:45;0.45;;;0.30;;
23115;SDS011;11727;52.134;5.052;2022-07-23T10:13:12;4.65;;;0.40;;
23115;SDS011;11727;52.134;5.052;2022-07-23T10:16:14;0.57;;;0.40;;
23115;SDS011;11727;52.134;5.052;2022-07-23T10:18:40;1.20;;;0.40;;
23115;SDS011;11727;52.134;5.052;2022-07-23T10:21:07;0.73;;;0.55;;
23115;SDS011;11727;52.134;5.052;2022-07-23T10:23:35;1.52;;;0.40;;
23115;SDS011;11727;52.134;5.052;2022-07-23T10:37:12;0.77;;;0.57;;
23115;SDS011;11727;52.134;5.052;2022-07-23T10:42:50;2.00;;;0.65;;
23115;SDS011;11727;52.134;5.052;2022-07-23T10:47:53;1.85;;;0.40;;
23115;SDS011;11727;52.134;5.052;2022-07-23T10:50:21;1.08;;;0.50;;
23115;SDS011;11727;52.134;5.052;2022-07-23T10:57:57;1.58;;;0.47;;
23115;SDS011;11727;52.134;5.052;2022-07-23T11:00:23;1.02;;;0.52;;
23115;SDS011;11727;52.134;5.052;2022-07-23T11:02:51;0.55;;;0.50;;
23115;SDS011;11727;52.134;5.052;2022-07-23T11:05:19;1.25;;;0.40;;
23115;SDS011;11727;52.134;5.052;2022-07-23T11:34:44;1.45;;;0.47;;
23115;SDS011;11727;52.134;5.052;2022-07-23T11:37:47;1.45;;;0.65;;
23115;SDS011;11727;52.134;5.052;2022-07-23T11:40:09;1.02;;;0.80;;
23115;SDS011;11727;52.134;5.052;2022-07-23T11:42:38;0.80;;;0.60;;
23115;SDS011;11727;52.134;5.052;2022-07-23T11:45:06;0.95;;;0.60;;
23115;SDS011;11727;52.134;5.052;2022-07-23T11:47:33;0.88;;;0.60;;
23115;SDS011;11727;52.134;5.052;2022-07-23T11:50:01;0.70;;;0.70;;
23115;SDS011;11727;52.134;5.052;2022-07-23T11:52:28;0.93;;;0.57;;
23115;SDS011;11727;52.134;5.052;2022-07-23T11:55:02;1.33;;;0.60;;
23115;SDS011;11727;52.134;5.052;2022-07-23T11:57:33;0.65;;;0.50;;
23115;SDS011;11727;52.134;5.052;2022-07-23T12:00:05;1.85;;;0.93;;
23115;SDS011;11727;52.134;5.052;2022-07-23T12:02:41;1.30;;;0.70;;
23115;SDS011;11727;52.134;5.052;2022-07-23T12:05:16;0.57;;;0.50;;
23115;SDS011;11727;52.134;5.052;2022-07-23T12:12:55;2.67;;;0.93;;
23115;SDS011;11727;52.134;5.052;2022-07-23T12:15:27;2.80;;;0.60;;
23115;SDS011;11727;52.134;5.052;2022-07-23T12:17:57;1.30;;;0.60;;
23115;SDS011;11727;52.134;5.052;2022-07-23T12:20:25;1.42;;;0.95;;
23115;SDS011;11727;52.134;5.052;2022-07-23T12:22:53;1.80;;;0.73;;
23115;SDS011;11727;52.134;5.052;2022-07-23T12:25:23;1.23;;;0.70;;
23115;SDS011;11727;52.134;5.052;2022-07-23T12:30:29;1.77;;;0.80;;
23115;SDS011;11727;52.134;5.052;2022-07-23T12:32:57;3.13;;;0.90;;
23115;SDS011;11727;52.134;5.052;2022-07-23T12:35:29;1.98;;;1.13;;
23115;SDS011;11727;52.134;5.052;2022-07-23T12:37:59;1.70;;;0.90;;
23115;SDS011;11727;52.134;5.052;2022-07-23T12:40:29;1.92;;;0.80;;
23115;SDS011;11727;52.134;5.052;2022-07-23T12:43:01;2.17;;;0.90;;
23115;SDS011;11727;52.134;5.052;2022-07-23T12:45:28;1.88;;;1.08;;
23115;SDS011;11727;52.134;5.052;2022-07-23T12:48:08;1.25;;;0.82;;
23115;SDS011;11727;52.134;5.052;2022-07-23T12:50:47;2.92;;;0.90;;
23115;SDS011;11727;52.134;5.052;2022-07-23T12:53:25;5.00;;;0.95;;
23115;SDS011;11727;52.134;5.052;2022-07-23T13:01:28;1.83;;;1.20;;
23115;SDS011;11727;52.134;5.052;2022-07-23T13:04:00;2.15;;;0.88;;
23115;SDS011;11727;52.134;5.052;2022-07-23T13:06:33;1.65;;;1.10;;
23115;SDS011;11727;52.134;5.052;2022-07-23T13:09:10;1.55;;;0.80;;
23115;SDS011;11727;52.134;5.052;2022-07-23T13:11:41;1.08;;;0.85;;
23115;SDS011;11727;52.134;5.052;2022-07-23T13:14:08;1.98;;;0.88;;
23115;SDS011;11727;52.134;5.052;2022-07-23T13:16:34;3.03;;;0.82;;
23115;SDS011;11727;52.134;5.052;2022-07-23T13:18:59;2.42;;;1.05;;
23115;SDS011;11727;52.134;5.052;2022-07-23T13:21:26;3.15;;;0.90;;
23115;SDS011;11727;52.134;5.052;2022-07-23T13:23:53;3.43;;;1.00;;
23115;SDS011;11727;52.134;5.052;2022-07-23T13:26:19;1.80;;;1.13;;
23115;SDS011;11727;52.134;5.052;2022-07-23T13:28:45;2.25;;;0.80;;
23115;SDS011;11727;52.134;5.052;2022-07-23T13:31:10;1.35;;;0.85;;
23115;SDS011;11727;52.134;5.052;2022-07-23T13:33:36;2.75;;;1.02;;
23115;SDS011;11727;52.134;5.052;2022-07-23T13:36:02;0.68;;;0.60;;
23115;SDS011;11727;52.134;5.052;2022-07-23T13:38:28;1.55;;;1.00;;
23115;SDS011;11727;52.134;5.052;2022-07-23T13:40:54;3.08;;;1.25;;
23115;SDS011;11727;52.134;5.052;2022-07-23T13:43:20;1.10;;;0.80;;
23115;SDS011;11727;52.134;5.052;2022-07-23T13:45:47;1.15;;;0.93;;
23115;SDS011;11727;52.134;5.052;2022-07-23T13:48:14;0.70;;;0.60;;
23115;SDS011;11727;52.134;5.052;2022-07-23T13:50:40;3.70;;;1.23;;
23115;SDS011;11727;52.134;5.052;2022-07-23T13:53:08;1.20;;;0.55;;
23115;SDS011;11727;52.134;5.052;2022-07-23T13:55:36;4.20;;;1.00;;
23115;SDS011;11727;52.134;5.052;2022-07-23T13:58:02;2.13;;;0.90;;
23115;SDS011;11727;52.134;5.052;2022-07-23T14:00:29;3.60;;;1.05;;
23115;SDS011;11727;52.134;5.052;2022-07-23T14:02:56;1.95;;;0.98;;
23115;SDS011;11727;52.134;5.052;2022-07-23T14:05:22;3.70;;;0.90;;
23115;SDS011;11727;52.134;5.052;2022-07-23T14:07:48;2.92;;;1.13;;
23115;SDS011;11727;52.134;5.052;2022-07-23T14:10:15;3.63;;;1.00;;
23115;SDS011;11727;52.134;5.052;2022-07-23T14:12:42;1.55;;;1.00;;
23115;SDS011;11727;52.134;5.052;2022-07-23T14:15:08;1.30;;;0.70;;
23115;SDS011;11727;52.134;5.052;2022-07-23T14:17:38;1.27;;;0.73;;
23115;SDS011;11727;52.134;5.052;2022-07-23T14:20:08;1.90;;;0.85;;
23115;SDS011;11727;52.134;5.052;2022-07-23T14:22:35;2.55;;;0.98;;
23115;SDS011;11727;52.134;5.052;2022-07-23T14:25:00;1.90;;;0.90;;
23115;SDS011;11727;52.134;5.052;2022-07-23T14:27:26;2.25;;;1.10;;
23115;SDS011;11727;52.134;5.052;2022-07-23T14:29:53;1.55;;;0.90;;
23115;SDS011;11727;52.134;5.052;2022-07-23T14:32:19;1.90;;;0.93;;
23115;SDS011;11727;52.134;5.052;2022-07-23T14:34:46;2.15;;;0.75;;
23115;SDS011;11727;52.134;5.052;2022-07-23T14:37:11;1.42;;;0.85;;
23115;SDS011;11727;52.134;5.052;2022-07-23T14:39:38;2.08;;;0.88;;
23115;SDS011;11727;52.134;5.052;2022-07-23T14:42:04;1.03;;;0.53;;
23115;SDS011;11727;52.134;5.052;2022-07-23T14:44:30;1.53;;;0.80;;
23115;SDS011;11727;52.134;5.052;2022-07-23T14:46:56;5.10;;;0.90;;
23115;SDS011;11727;52.134;5.052;2022-07-23T14:49:22;0.90;;;0.70;;
23115;SDS011;11727;52.134;5.052;2022-07-23T14:51:47;1.60;;;0.98;;
23115;SDS011;11727;52.134;5.052;2022-07-23T14:54:14;2.45;;;1.23;;
23115;SDS011;11727;52.134;5.052;2022-07-23T14:56:40;1.00;;;0.70;;
23115;SDS011;11727;52.134;5.052;2022-07-23T14:59:06;1.60;;;1.23;;
23115;SDS011;11727;52.134;5.052;2022-07-23T15:01:32;1.17;;;0.90;;
23115;SDS011;11727;52.134;5.052;2022-07-23T15:03:58;1.33;;;1.05;;
23115;SDS011;11727;52.134;5.052;2022-07-23T15:06:24;1.90;;;1.02;;
23115;SDS011;11727;52.134;5.052;2022-07-23T15:08:50;1.75;;;1.02;;
23115;SDS011;11727;52.134;5.052;2022-07-23T15:11:16;2.83;;;1.25;;
23115;SDS011;11727;52.134;5.052;2022-07-23T15:13:41;1.25;;;1.10;;
23115;SDS011;11727;52.134;5.052;2022-07-23T15:16:07;1.33;;;1.10;;
23115;SDS011;11727;52.134;5.052;2022-07-23T15:18:33;2.40;;;1.20;;
23115;SDS011;11727;52.134;5.052;2022-07-23T15:20:59;1.65;;;1.25;;
23115;SDS011;11727;52.134;5.052;2022-07-23T15:23:25;2.13;;;1.38;;
23115;SDS011;11727;52.134;5.052;2022-07-23T15:25:53;2.55;;;1.17;;
23115;SDS011;11727;52.134;5.052;2022-07-23T15:28:19;2.33;;;1.25;;
23115;SDS011;11727;52.134;5.052;2022-07-23T15:30:46;1.55;;;1.23;;
23115;SDS011;11727;52.134;5.052;2022-07-23T15:33:11;2.05;;;1.30;;
23115;SDS011;11727;52.134;5.052;2022-07-23T15:35:37;1.55;;;1.00;;
23115;SDS011;11727;52.134;5.052;2022-07-23T15:38:02;2.70;;;1.35;;
23115;SDS011;11727;52.134;5.052;2022-07-23T15:40:28;1.65;;;1.30;;
23115;SDS011;11727;52.134;5.052;2022-07-23T15:42:54;1.90;;;1.30;;
23115;SDS011;11727;52.134;5.052;2022-07-23T15:45:19;3.00;;;1.35;;
23115;SDS011;11727;52.134;5.052;2022-07-23T15:47:46;3.50;;;1.25;;
23115;SDS011;11727;52.134;5.052;2022-07-23T15:50:13;3.95;;;1.23;;
23115;SDS011;11727;52.134;5.052;2022-07-23T15:52:39;2.25;;;1.75;;
23115;SDS011;11727;52.134;5.052;2022-07-23T15:55:05;1.40;;;1.08;;
23115;SDS011;11727;52.134;5.052;2022-07-23T15:57:32;2.75;;;1.48;;
23115;SDS011;11727;52.134;5.052;2022-07-23T15:59:58;1.92;;;1.35;;